sensor_id;sensor_type;location;lat;lon;timestamp;pressure;altitude;pressure_sealevel;temperature;humidity
83037;BME280;73029;43.592;1.458;2024-03-02T00:02:12;99065.94;;;11.16;59.66
83037;BME280;73029;43.592;1.458;2024-03-02T00:04:38;99074.81;;;11.15;59.33
83037;BME280;73029;43.592;1.458;2024-03-02T00:07:03;99072.22;;;11.13;59.88
83037;BME280;73029;43.592;1.458;2024-03-02T00:09:29;99073.03;;;11.15;60.05
83037;BME280;73029;43.592;1.458;2024-03-02T00:11:55;99084.16;;;11.23;60.20
83037;BME280;73029;43.592;1.458;2024-03-02T00:14:21;99073.50;;;11.26;59.65
83037;BME280;73029;43.592;1.458;2024-03-02T00:16:46;99075.22;;;11.27;59.68
83037;BME280;73029;43.592;1.458;2024-03-02T00:19:12;99080.28;;;11.33;59.39
83037;BME280;73029;43.592;1.458;2024-03-02T00:21:37;99085.47;;;11.37;59.81
83037;BME280;73029;43.592;1.458;2024-03-02T00:24:21;99076.78;;;11.33;59.31
83037;BME280;73029;43.592;1.458;2024-03-02T00:26:50;99076.47;;;11.41;59.84
83037;BME280;73029;43.592;1.458;2024-03-02T00:29:17;99078.16;;;11.43;59.57
83037;BME280;73029;43.592;1.458;2024-03-02T00:31:44;99082.47;;;11.46;59.44
83037;BME280;73029;43.592;1.458;2024-03-02T00:34:12;99083.25;;;11.48;59.53
83037;BME280;73029;43.592;1.458;2024-03-02T00:36:38;99080.50;;;11.51;59.61
83037;BME280;73029;43.592;1.458;2024-03-02T00:39:04;99072.56;;;11.51;59.53
83037;BME280;73029;43.592;1.458;2024-03-02T00:41:36;99080.28;;;11.57;59.74
83037;BME280;73029;43.592;1.458;2024-03-02T00:46:39;99072.41;;;11.55;59.39
83037;BME280;73029;43.592;1.458;2024-03-02T00:51:36;99070.22;;;11.65;59.58
83037;BME280;73029;43.592;1.458;2024-03-02T00:54:05;99062.38;;;11.64;59.29
83037;BME280;73029;43.592;1.458;2024-03-02T00:56:32;99063.22;;;11.64;59.05
83037;BME280;73029;43.592;1.458;2024-03-02T00:58:58;99058.72;;;11.66;59.30
83037;BME280;73029;43.592;1.458;2024-03-02T01:01:23;99057.69;;;11.70;59.31
83037;BME280;73029;43.592;1.458;2024-03-02T01:03:49;99061.13;;;11.72;59.21
83037;BME280;73029;43.592;1.458;2024-03-02T01:06:16;99048.81;;;11.71;59.03
83037;BME280;73029;43.592;1.458;2024-03-02T01:08:41;99050.53;;;11.72;59.11
83037;BME280;73029;43.592;1.458;2024-03-02T01:11:07;99060.03;;;11.78;58.99
83037;BME280;73029;43.592;1.458;2024-03-02T01:13:33;99053.06;;;11.75;59.64
83037;BME280;73029;43.592;1.458;2024-03-02T01:15:59;99043.41;;;11.74;59.08
83037;BME280;73029;43.592;1.458;2024-03-02T01:18:24;99047.63;;;11.78;59.11
83037;BME280;73029;43.592;1.458;2024-03-02T01:20:50;99044.06;;;11.79;58.92
83037;BME280;73029;43.592;1.458;2024-03-02T01:23:24;99036.13;;;11.79;58.86
83037;BME280;73029;43.592;1.458;2024-03-02T01:25:50;99033.47;;;11.81;58.50
83037;BME280;73029;43.592;1.458;2024-03-02T01:28:17;99016.72;;;11.79;58.62
83037;BME280;73029;43.592;1.458;2024-03-02T01:30:43;99020.03;;;11.85;59.26
83037;BME280;73029;43.592;1.458;2024-03-02T01:33:08;99019.16;;;11.85;59.00
83037;BME280;73029;43.592;1.458;2024-03-02T01:35:34;99014.88;;;11.82;58.78
83037;BME280;73029;43.592;1.458;2024-03-02T01:38:03;99018.19;;;11.88;58.89
83037;BME280;73029;43.592;1.458;2024-03-02T01:40:28;99010.28;;;11.86;58.91
83037;BME280;73029;43.592;1.458;2024-03-02T01:42:54;99003.09;;;11.90;59.06
83037;BME280;73029;43.592;1.458;2024-03-02T01:45:21;98997.88;;;11.88;59.06
83037;BME280;73029;43.592;1.458;2024-03-02T01:47:47;98993.34;;;11.90;58.95
83037;BME280;73029;43.592;1.458;2024-03-02T01:50:12;98988.13;;;11.89;58.66
83037;BME280;73029;43.592;1.458;2024-03-02T01:52:38;98996.69;;;11.95;58.82
83037;BME280;73029;43.592;1.458;2024-03-02T01:55:04;98980.13;;;11.90;59.18
83037;BME280;73029;43.592;1.458;2024-03-02T01:57:31;98977.38;;;11.93;59.46
83037;BME280;73029;43.592;1.458;2024-03-02T01:59:56;98980.91;;;11.92;59.33
83037;BME280;73029;43.592;1.458;2024-03-02T02:02:22;98978.34;;;11.91;59.06
83037;BME280;73029;43.592;1.458;2024-03-02T02:04:47;98989.75;;;11.93;58.97
83037;BME280;73029;43.592;1.458;2024-03-02T02:07:13;98981.13;;;11.88;58.97
83037;BME280;73029;43.592;1.458;2024-03-02T02:09:41;98988.91;;;11.91;58.94
83037;BME280;73029;43.592;1.458;2024-03-02T02:12:06;98975.94;;;11.84;59.28
83037;BME280;73029;43.592;1.458;2024-03-02T02:14:33;98961.72;;;11.87;58.98
83037;BME280;73029;43.592;1.458;2024-03-02T02:16:59;98969.66;;;11.87;58.99
83037;BME280;73029;43.592;1.458;2024-03-02T02:19:24;98963.78;;;11.79;58.93
83037;BME280;73029;43.592;1.458;2024-03-02T02:21:49;98965.50;;;11.81;59.33
83037;BME280;73029;43.592;1.458;2024-03-02T02:24:15;98964.63;;;11.81;58.81
83037;BME280;73029;43.592;1.458;2024-03-02T02:26:40;98966.56;;;11.76;59.32
83037;BME280;73029;43.592;1.458;2024-03-02T02:29:06;98965.63;;;11.77;59.24
83037;BME280;73029;43.592;1.458;2024-03-02T02:31:41;98967.44;;;11.76;59.57
83037;BME280;73029;43.592;1.458;2024-03-02T02:34:06;98961.44;;;11.71;59.33
83037;BME280;73029;43.592;1.458;2024-03-02T02:36:33;98953.50;;;11.71;59.64
83037;BME280;73029;43.592;1.458;2024-03-02T02:39:02;98924.47;;;11.70;59.68
83037;BME280;73029;43.592;1.458;2024-03-02T02:41:29;98926.25;;;11.69;59.79
83037;BME280;73029;43.592;1.458;2024-03-02T02:43:54;98929.69;;;11.71;59.94
83037;BME280;73029;43.592;1.458;2024-03-02T02:46:20;98924.53;;;11.68;59.74
83037;BME280;73029;43.592;1.458;2024-03-02T02:48:45;98907.91;;;11.65;59.67
83037;BME280;73029;43.592;1.458;2024-03-02T02:51:11;98906.13;;;11.65;59.79
83037;BME280;73029;43.592;1.458;2024-03-02T02:53:36;98905.25;;;11.65;59.63
83037;BME280;73029;43.592;1.458;2024-03-02T02:56:06;98892.19;;;11.60;59.33
83037;BME280;73029;43.592;1.458;2024-03-02T02:58:31;98884.47;;;11.55;59.58
83037;BME280;73029;43.592;1.458;2024-03-02T03:00:56;98868.72;;;11.52;59.62
83037;BME280;73029;43.592;1.458;2024-03-02T03:03:22;98885.34;;;11.56;59.57
83037;BME280;73029;43.592;1.458;2024-03-02T03:05:48;98879.22;;;11.54;59.46
83037;BME280;73029;43.592;1.458;2024-03-02T03:08:13;98857.94;;;11.37;59.67
83037;BME280;73029;43.592;1.458;2024-03-02T03:10:39;98877.66;;;11.50;59.68
83037;BME280;73029;43.592;1.458;2024-03-02T03:13:05;98874.34;;;11.45;59.66
83037;BME280;73029;43.592;1.458;2024-03-02T03:15:34;98860.25;;;11.44;59.36
83037;BME280;73029;43.592;1.458;2024-03-02T03:18:00;98857.59;;;11.44;60.03
83037;BME280;73029;43.592;1.458;2024-03-02T03:20:25;98851.56;;;11.41;59.61
83037;BME280;73029;43.592;1.458;2024-03-02T03:22:51;98854.28;;;11.39;59.81
83037;BME280;73029;43.592;1.458;2024-03-02T03:25:16;98849.97;;;11.37;59.86
83037;BME280;73029;43.592;1.458;2024-03-02T03:27:41;98841.22;;;11.35;60.11
83037;BME280;73029;43.592;1.458;2024-03-02T03:30:07;98828.16;;;11.31;60.01
83037;BME280;73029;43.592;1.458;2024-03-02T03:32:32;98823.78;;;11.30;59.69
83037;BME280;73029;43.592;1.458;2024-03-02T03:34:58;98815.03;;;11.28;60.33
83037;BME280;73029;43.592;1.458;2024-03-02T03:37:23;98816.03;;;11.26;60.26
83037;BME280;73029;43.592;1.458;2024-03-02T03:39:50;98814.31;;;11.25;59.89
83037;BME280;73029;43.592;1.458;2024-03-02T03:42:16;98808.47;;;11.17;60.50
83037;BME280;73029;43.592;1.458;2024-03-02T03:44:42;98812.72;;;11.21;60.09
83037;BME280;73029;43.592;1.458;2024-03-02T03:47:07;98801.53;;;11.14;60.54
83037;BME280;73029;43.592;1.458;2024-03-02T03:49:32;98812.88;;;11.16;60.36
83037;BME280;73029;43.592;1.458;2024-03-02T03:51:58;98807.59;;;11.16;60.46
83037;BME280;73029;43.592;1.458;2024-03-02T03:54:23;98796.34;;;11.11;60.42
83037;BME280;73029;43.592;1.458;2024-03-02T03:56:49;98803.31;;;11.14;60.38
83037;BME280;73029;43.592;1.458;2024-03-02T03:59:17;98787.69;;;11.08;60.49
83037;BME280;73029;43.592;1.458;2024-03-02T04:01:42;98790.34;;;11.08;60.03
83037;BME280;73029;43.592;1.458;2024-03-02T04:04:08;98787.75;;;11.06;60.37
83037;BME280;73029;43.592;1.458;2024-03-02T04:06:33;98783.50;;;11.02;60.46
83037;BME280;73029;43.592;1.458;2024-03-02T04:08:59;98790.59;;;11.01;60.64
83037;BME280;73029;43.592;1.458;2024-03-02T04:11:24;98774.13;;;10.95;60.93
83037;BME280;73029;43.592;1.458;2024-03-02T04:13:49;98766.28;;;10.92;60.13
83037;BME280;73029;43.592;1.458;2024-03-02T04:16:15;98769.78;;;10.92;60.40
83037;BME280;73029;43.592;1.458;2024-03-02T04:18:43;98771.47;;;10.95;60.29
83037;BME280;73029;43.592;1.458;2024-03-02T04:21:08;98762.09;;;10.88;60.29
83037;BME280;73029;43.592;1.458;2024-03-02T04:23:34;98777.81;;;10.91;60.50
83037;BME280;73029;43.592;1.458;2024-03-02T04:25:59;98766.69;;;10.83;60.64
83037;BME280;73029;43.592;1.458;2024-03-02T04:28:25;98764.16;;;10.79;60.77
83037;BME280;73029;43.592;1.458;2024-03-02T04:30:50;98761.50;;;10.79;60.27
83037;BME280;73029;43.592;1.458;2024-03-02T04:33:15;98752.78;;;10.77;60.20
83037;BME280;73029;43.592;1.458;2024-03-02T04:35:41;98748.53;;;10.73;60.70
83037;BME280;73029;43.592;1.458;2024-03-02T04:38:07;98751.94;;;10.77;61.12
83037;BME280;73029;43.592;1.458;2024-03-02T04:40:32;98757.31;;;10.74;60.16
83037;BME280;73029;43.592;1.458;2024-03-02T04:42:57;98746.97;;;10.69;60.24
83037;BME280;73029;43.592;1.458;2024-03-02T04:45:24;98749.72;;;10.66;60.69
83037;BME280;73029;43.592;1.458;2024-03-02T04:47:49;98754.06;;;10.67;60.50
83037;BME280;73029;43.592;1.458;2024-03-02T04:50:15;98745.44;;;10.64;60.64
83037;BME280;73029;43.592;1.458;2024-03-02T04:52:40;98739.47;;;10.59;60.42
83037;BME280;73029;43.592;1.458;2024-03-02T04:55:06;98732.38;;;10.59;60.81
83037;BME280;73029;43.592;1.458;2024-03-02T04:57:57;98737.81;;;10.56;61.17
83037;BME280;73029;43.592;1.458;2024-03-02T05:00:22;98724.78;;;10.51;61.12
83037;BME280;73029;43.592;1.458;2024-03-02T05:02:51;98732.63;;;10.53;60.64
83037;BME280;73029;43.592;1.458;2024-03-02T05:05:16;98735.19;;;10.56;61.21
83037;BME280;73029;43.592;1.458;2024-03-02T05:07:42;98734.34;;;10.54;61.41
83037;BME280;73029;43.592;1.458;2024-03-02T05:10:09;98723.84;;;10.52;61.50
83037;BME280;73029;43.592;1.458;2024-03-02T05:12:34;98710.72;;;10.51;61.65
83037;BME280;73029;43.592;1.458;2024-03-02T05:15:20;98710.75;;;10.49;61.48
83037;BME280;73029;43.592;1.458;2024-03-02T05:17:46;98707.25;;;10.49;61.31
83037;BME280;73029;43.592;1.458;2024-03-02T05:20:12;98706.34;;;10.50;61.44
83037;BME280;73029;43.592;1.458;2024-03-02T05:22:38;98709.88;;;10.49;61.44
83037;BME280;73029;43.592;1.458;2024-03-02T05:25:04;98697.50;;;10.51;60.82
83037;BME280;73029;43.592;1.458;2024-03-02T05:27:30;98684.59;;;10.43;61.26
83037;BME280;73029;43.592;1.458;2024-03-02T05:29:56;98695.91;;;10.47;61.63
83037;BME280;73029;43.592;1.458;2024-03-02T05:32:21;98681.75;;;10.48;61.10
83037;BME280;73029;43.592;1.458;2024-03-02T05:34:47;98675.88;;;10.41;61.17
83037;BME280;73029;43.592;1.458;2024-03-02T05:37:12;98681.03;;;10.44;61.43
83037;BME280;73029;43.592;1.458;2024-03-02T05:39:38;98680.03;;;10.47;61.60
83037;BME280;73029;43.592;1.458;2024-03-02T05:42:03;98673.16;;;10.43;61.16
83037;BME280;73029;43.592;1.458;2024-03-02T05:44:29;98673.84;;;10.48;61.48
83037;BME280;73029;43.592;1.458;2024-03-02T05:46:55;98672.91;;;10.49;61.06
83037;BME280;73029;43.592;1.458;2024-03-02T05:49:23;98665.97;;;10.46;61.23
83037;BME280;73029;43.592;1.458;2024-03-02T05:51:48;98659.09;;;10.42;61.35
83037;BME280;73029;43.592;1.458;2024-03-02T05:54:14;98673.16;;;10.43;61.27
83037;BME280;73029;43.592;1.458;2024-03-02T05:56:39;98652.16;;;10.40;61.31
83037;BME280;73029;43.592;1.458;2024-03-02T05:59:04;98665.13;;;10.46;61.68
83037;BME280;73029;43.592;1.458;2024-03-02T06:01:43;98648.41;;;10.45;61.06
83037;BME280;73029;43.592;1.458;2024-03-02T06:04:12;98644.22;;;10.40;61.63
83037;BME280;73029;43.592;1.458;2024-03-02T06:06:39;98637.31;;;10.37;61.64
83037;BME280;73029;43.592;1.458;2024-03-02T06:09:05;98638.81;;;10.43;61.17
83037;BME280;73029;43.592;1.458;2024-03-02T06:11:36;98633.53;;;10.43;61.14
83037;BME280;73029;43.592;1.458;2024-03-02T06:14:08;98619.53;;;10.41;60.97
83037;BME280;73029;43.592;1.458;2024-03-02T06:16:34;98618.59;;;10.42;60.87
83037;BME280;73029;43.592;1.458;2024-03-02T06:19:00;98603.16;;;10.33;61.53
83037;BME280;73029;43.592;1.458;2024-03-02T06:21:26;98612.59;;;10.38;61.25
83037;BME280;73029;43.592;1.458;2024-03-02T06:23:52;98617.88;;;10.38;61.12
83037;BME280;73029;43.592;1.458;2024-03-02T06:26:18;98601.44;;;10.32;61.81
83037;BME280;73029;43.592;1.458;2024-03-02T06:28:45;98602.16;;;10.35;61.70
83037;BME280;73029;43.592;1.458;2024-03-02T06:31:11;98598.72;;;10.33;61.21
83037;BME280;73029;43.592;1.458;2024-03-02T06:33:36;98586.56;;;10.29;61.48
83037;BME280;73029;43.592;1.458;2024-03-02T06:36:02;98585.84;;;10.26;61.84
83037;BME280;73029;43.592;1.458;2024-03-02T06:38:27;98579.50;;;10.30;61.86
83037;BME280;73029;43.592;1.458;2024-03-02T06:40:53;98571.72;;;10.27;61.43
83037;BME280;73029;43.592;1.458;2024-03-02T06:43:21;98570.84;;;10.26;61.52
83037;BME280;73029;43.592;1.458;2024-03-02T06:45:50;98581.41;;;10.26;61.36
83037;BME280;73029;43.592;1.458;2024-03-02T06:48:16;98582.50;;;10.20;61.54
83037;BME280;73029;43.592;1.458;2024-03-02T06:50:46;98567.75;;;10.15;61.42
83037;BME280;73029;43.592;1.458;2024-03-02T06:53:11;98565.19;;;10.13;61.52
83037;BME280;73029;43.592;1.458;2024-03-02T06:55:37;98566.91;;;10.14;61.45
83037;BME280;73029;43.592;1.458;2024-03-02T06:58:02;98547.66;;;10.11;61.45
83037;BME280;73029;43.592;1.458;2024-03-02T07:00:28;98550.19;;;10.14;62.42
83037;BME280;73029;43.592;1.458;2024-03-02T07:02:54;98549.34;;;10.13;62.46
83037;BME280;73029;43.592;1.458;2024-03-02T07:05:19;98546.03;;;10.08;62.11
83037;BME280;73029;43.592;1.458;2024-03-02T07:07:46;98545.09;;;10.09;62.12
83037;BME280;73029;43.592;1.458;2024-03-02T07:10:11;98555.47;;;10.14;62.13
83037;BME280;73029;43.592;1.458;2024-03-02T07:12:37;98553.94;;;10.08;62.32
83037;BME280;73029;43.592;1.458;2024-03-02T07:15:03;98563.44;;;10.12;62.11
83037;BME280;73029;43.592;1.458;2024-03-02T07:17:29;98560.16;;;10.07;62.24
83037;BME280;73029;43.592;1.458;2024-03-02T07:19:54;98546.13;;;10.05;61.94
83037;BME280;73029;43.592;1.458;2024-03-02T07:22:20;98545.28;;;10.05;62.64
83037;BME280;73029;43.592;1.458;2024-03-02T07:24:46;98537.56;;;10.00;61.63
83037;BME280;73029;43.592;1.458;2024-03-02T07:27:12;98537.44;;;10.03;61.92
83037;BME280;73029;43.592;1.458;2024-03-02T07:29:38;98550.44;;;10.08;62.37
83037;BME280;73029;43.592;1.458;2024-03-02T07:32:04;98546.88;;;10.09;62.45
83037;BME280;73029;43.592;1.458;2024-03-02T07:34:30;98537.94;;;10.13;62.14
83037;BME280;73029;43.592;1.458;2024-03-02T07:36:56;98527.22;;;10.16;62.53
83037;BME280;73029;43.592;1.458;2024-03-02T07:39:21;98523.53;;;10.20;62.16
83037;BME280;73029;43.592;1.458;2024-03-02T07:41:47;98511.31;;;10.17;62.09
83037;BME280;73029;43.592;1.458;2024-03-02T07:44:13;98519.97;;;10.21;61.93
83037;BME280;73029;43.592;1.458;2024-03-02T07:46:43;98508.44;;;10.23;61.68
83037;BME280;73029;43.592;1.458;2024-03-02T07:49:09;98499.59;;;10.24;62.25
83037;BME280;73029;43.592;1.458;2024-03-02T07:51:34;98491.78;;;10.21;61.84
83037;BME280;73029;43.592;1.458;2024-03-02T07:54:00;98498.53;;;10.29;62.17
83037;BME280;73029;43.592;1.458;2024-03-02T07:56:25;98492.47;;;10.27;61.62
83037;BME280;73029;43.592;1.458;2024-03-02T07:58:51;98487.97;;;10.29;61.45
83037;BME280;73029;43.592;1.458;2024-03-02T08:01:17;98476.63;;;10.27;62.34
83037;BME280;73029;43.592;1.458;2024-03-02T08:03:43;98488.91;;;10.28;61.58
83037;BME280;73029;43.592;1.458;2024-03-02T08:06:13;98482.84;;;10.26;61.27
83037;BME280;73029;43.592;1.458;2024-03-02T08:08:40;98483.97;;;10.18;61.62
83037;BME280;73029;43.592;1.458;2024-03-02T08:11:06;98482.16;;;10.20;61.51
83037;BME280;73029;43.592;1.458;2024-03-02T08:13:31;98475.09;;;10.21;61.40
83037;BME280;73029;43.592;1.458;2024-03-02T08:15:56;98471.47;;;10.23;62.43
83037;BME280;73029;43.592;1.458;2024-03-02T08:18:22;98464.28;;;10.27;62.20
83037;BME280;73029;43.592;1.458;2024-03-02T08:20:47;98465.66;;;10.36;62.10
83037;BME280;73029;43.592;1.458;2024-03-02T08:23:13;98454.97;;;10.39;61.68
83037;BME280;73029;43.592;1.458;2024-03-02T08:25:38;98460.78;;;10.47;62.00
83037;BME280;73029;43.592;1.458;2024-03-02T08:28:04;98474.56;;;10.54;61.72
83037;BME280;73029;43.592;1.458;2024-03-02T08:30:30;98470.72;;;10.61;61.93
83037;BME280;73029;43.592;1.458;2024-03-02T08:32:55;98473.91;;;10.69;61.63
83037;BME280;73029;43.592;1.458;2024-03-02T08:35:20;98480.34;;;10.82;61.43
83037;BME280;73029;43.592;1.458;2024-03-02T08:37:47;98480.84;;;10.90;61.21
83037;BME280;73029;43.592;1.458;2024-03-02T08:40:13;98460.44;;;10.94;60.49
83037;BME280;73029;43.592;1.458;2024-03-02T08:42:39;98461.78;;;11.02;60.88
83037;BME280;73029;43.592;1.458;2024-03-02T08:45:06;98453.66;;;11.07;60.95
83037;BME280;73029;43.592;1.458;2024-03-02T08:47:31;98453.41;;;11.12;60.27
83037;BME280;73029;43.592;1.458;2024-03-02T08:49:59;98443.63;;;11.14;60.62
83037;BME280;73029;43.592;1.458;2024-03-02T08:52:25;98419.28;;;11.07;60.93
83037;BME280;73029;43.592;1.458;2024-03-02T08:54:50;98437.75;;;11.26;60.53
83037;BME280;73029;43.592;1.458;2024-03-02T08:57:15;98420.03;;;11.28;60.96
83037;BME280;73029;43.592;1.458;2024-03-02T08:59:41;98422.28;;;11.36;60.48
83037;BME280;73029;43.592;1.458;2024-03-02T09:02:06;98418.50;;;11.41;60.35
83037;BME280;73029;43.592;1.458;2024-03-02T09:04:32;98395.16;;;11.32;60.51
83037;BME280;73029;43.592;1.458;2024-03-02T09:06:57;98410.34;;;11.46;60.42
83037;BME280;73029;43.592;1.458;2024-03-02T09:09:23;98409.09;;;11.53;60.23
83037;BME280;73029;43.592;1.458;2024-03-02T09:11:48;98403.81;;;11.53;60.51
83037;BME280;73029;43.592;1.458;2024-03-02T09:14:14;98393.09;;;11.56;60.85
83037;BME280;73029;43.592;1.458;2024-03-02T09:16:40;98398.22;;;11.59;60.45
83037;BME280;73029;43.592;1.458;2024-03-02T09:19:05;98401.81;;;11.58;60.33
83037;BME280;73029;43.592;1.458;2024-03-02T09:21:30;98409.56;;;11.61;60.41
83037;BME280;73029;43.592;1.458;2024-03-02T09:23:56;98403.59;;;11.57;60.21
83037;BME280;73029;43.592;1.458;2024-03-02T09:26:22;98383.06;;;11.63;60.54
83037;BME280;73029;43.592;1.458;2024-03-02T09:28:47;98379.31;;;11.67;60.81
83037;BME280;73029;43.592;1.458;2024-03-02T09:31:13;98387.88;;;11.72;60.39
83037;BME280;73029;43.592;1.458;2024-03-02T09:33:38;98369.03;;;11.78;61.07
83037;BME280;73029;43.592;1.458;2024-03-02T09:36:17;98372.97;;;11.88;60.71
83037;BME280;73029;43.592;1.458;2024-03-02T09:38:43;98363.06;;;11.92;60.72
83037;BME280;73029;43.592;1.458;2024-03-02T09:41:08;98343.63;;;11.93;60.33
83037;BME280;73029;43.592;1.458;2024-03-02T09:43:34;98346.72;;;12.01;60.67
83037;BME280;73029;43.592;1.458;2024-03-02T09:45:59;98341.31;;;12.02;60.72
83037;BME280;73029;43.592;1.458;2024-03-02T09:48:25;98338.44;;;12.07;60.58
83037;BME280;73029;43.592;1.458;2024-03-02T09:50:50;98326.16;;;12.06;60.89
83037;BME280;73029;43.592;1.458;2024-03-02T09:53:16;98333.25;;;12.05;61.00
83037;BME280;73029;43.592;1.458;2024-03-02T09:55:46;98327.09;;;12.05;60.79
83037;BME280;73029;43.592;1.458;2024-03-02T09:58:12;98318.34;;;12.03;61.10
83037;BME280;73029;43.592;1.458;2024-03-02T10:00:37;98328.78;;;12.06;61.19
83037;BME280;73029;43.592;1.458;2024-03-02T10:03:03;98315.59;;;12.04;61.42
83037;BME280;73029;43.592;1.458;2024-03-02T10:05:30;98315.56;;;12.06;61.31
83037;BME280;73029;43.592;1.458;2024-03-02T10:07:59;98325.75;;;12.13;61.46
83037;BME280;73029;43.592;1.458;2024-03-02T10:10:34;98326.41;;;12.17;61.41
83037;BME280;73029;43.592;1.458;2024-03-02T10:13:05;98323.44;;;12.23;61.70
83037;BME280;73029;43.592;1.458;2024-03-02T10:15:35;98325.94;;;12.26;61.41
83037;BME280;73029;43.592;1.458;2024-03-02T10:18:00;98315.34;;;12.26;61.78
83037;BME280;73029;43.592;1.458;2024-03-02T10:20:26;98308.84;;;12.32;61.77
83037;BME280;73029;43.592;1.458;2024-03-02T10:22:56;98295.53;;;12.33;61.74
83037;BME280;73029;43.592;1.458;2024-03-02T10:25:34;98278.69;;;12.34;61.46
83037;BME280;73029;43.592;1.458;2024-03-02T10:28:00;98275.88;;;12.37;62.05
83037;BME280;73029;43.592;1.458;2024-03-02T10:30:29;98266.97;;;12.38;61.40
83037;BME280;73029;43.592;1.458;2024-03-02T10:32:55;98265.69;;;12.46;61.41
83037;BME280;73029;43.592;1.458;2024-03-02T10:35:22;98270.66;;;12.52;61.45
83037;BME280;73029;43.592;1.458;2024-03-02T10:37:49;98258.97;;;12.56;61.37
83037;BME280;73029;43.592;1.458;2024-03-02T10:40:14;98259.81;;;12.56;61.05
83037;BME280;73029;43.592;1.458;2024-03-02T10:42:44;98245.63;;;12.57;61.26
83037;BME280;73029;43.592;1.458;2024-03-02T10:45:12;98249.19;;;12.72;61.05
83037;BME280;73029;43.592;1.458;2024-03-02T10:47:40;98251.59;;;12.77;61.23
83037;BME280;73029;43.592;1.458;2024-03-02T10:50:07;98239.03;;;12.80;60.92
83037;BME280;73029;43.592;1.458;2024-03-02T10:52:36;98230.13;;;12.81;61.26
83037;BME280;73029;43.592;1.458;2024-03-02T10:55:02;98236.03;;;12.86;60.66
83037;BME280;73029;43.592;1.458;2024-03-02T10:57:40;98218.91;;;12.92;61.03
83037;BME280;73029;43.592;1.458;2024-03-02T11:00:08;98214.09;;;12.99;61.03
83037;BME280;73029;43.592;1.458;2024-03-02T11:03:04;98203.28;;;13.02;61.01
83037;BME280;73029;43.592;1.458;2024-03-02T11:05:28;98217.63;;;13.13;60.90
83037;BME280;73029;43.592;1.458;2024-03-02T11:08:17;98209.59;;;13.15;60.32
83037;BME280;73029;43.592;1.458;2024-03-02T11:10:50;98213.53;;;13.24;60.37
83037;BME280;73029;43.592;1.458;2024-03-02T11:13:33;98199.44;;;13.23;60.20
83037;BME280;73029;43.592;1.458;2024-03-02T11:16:05;98213.84;;;13.33;59.84
83037;BME280;73029;43.592;1.458;2024-03-02T11:18:32;98206.81;;;13.32;59.90
83037;BME280;73029;43.592;1.458;2024-03-02T11:20:58;98193.19;;;13.38;59.79
83037;BME280;73029;43.592;1.458;2024-03-02T11:23:34;98185.91;;;13.42;59.41
83037;BME280;73029;43.592;1.458;2024-03-02T11:26:19;98169.31;;;13.38;59.80
83037;BME280;73029;43.592;1.458;2024-03-02T11:28:45;98169.41;;;13.51;59.91
83037;BME280;73029;43.592;1.458;2024-03-02T11:31:11;98170.09;;;13.55;60.06
83037;BME280;73029;43.592;1.458;2024-03-02T11:33:36;98154.72;;;13.60;59.58
83037;BME280;73029;43.592;1.458;2024-03-02T11:36:02;98149.22;;;13.63;59.78
83037;BME280;73029;43.592;1.458;2024-03-02T11:38:30;98153.19;;;13.70;59.58
83037;BME280;73029;43.592;1.458;2024-03-02T11:40:56;98152.25;;;13.71;59.57
83037;BME280;73029;43.592;1.458;2024-03-02T11:43:22;98138.22;;;13.69;59.10
83037;BME280;73029;43.592;1.458;2024-03-02T11:45:56;98134.22;;;13.76;59.06
83037;BME280;73029;43.592;1.458;2024-03-02T11:48:24;98140.28;;;13.78;58.93
83037;BME280;73029;43.592;1.458;2024-03-02T11:50:50;98136.50;;;13.82;59.03
83037;BME280;73029;43.592;1.458;2024-03-02T11:53:16;98126.25;;;13.90;58.76
83037;BME280;73029;43.592;1.458;2024-03-02T11:55:42;98125.22;;;13.93;58.76
83037;BME280;73029;43.592;1.458;2024-03-02T11:58:15;98126.81;;;13.95;58.28
83037;BME280;73029;43.592;1.458;2024-03-02T12:00:46;98111.53;;;13.99;58.35
83037;BME280;73029;43.592;1.458;2024-03-02T12:03:13;98102.50;;;14.01;57.98
83037;BME280;73029;43.592;1.458;2024-03-02T12:05:39;98104.78;;;14.08;58.58
83037;BME280;73029;43.592;1.458;2024-03-02T12:08:06;98107.88;;;14.14;57.91
83037;BME280;73029;43.592;1.458;2024-03-02T12:10:32;98088.25;;;14.17;58.06
83037;BME280;73029;43.592;1.458;2024-03-02T12:13:03;98083.28;;;14.25;57.81
83037;BME280;73029;43.592;1.458;2024-03-02T12:15:31;98081.91;;;14.32;57.89
83037;BME280;73029;43.592;1.458;2024-03-02T12:17:58;98049.84;;;14.35;57.70
83037;BME280;73029;43.592;1.458;2024-03-02T12:20:26;98051.72;;;14.47;57.89
83037;BME280;73029;43.592;1.458;2024-03-02T12:22:53;98067.03;;;14.57;57.86
83037;BME280;73029;43.592;1.458;2024-03-02T12:25:20;98056.94;;;14.62;57.15
83037;BME280;73029;43.592;1.458;2024-03-02T12:27:47;98046.94;;;14.65;56.57
83037;BME280;73029;43.592;1.458;2024-03-02T12:30:15;98031.63;;;14.69;56.64
83037;BME280;73029;43.592;1.458;2024-03-02T12:32:41;98029.53;;;14.74;56.18
83037;BME280;73029;43.592;1.458;2024-03-02T12:35:07;98021.44;;;14.75;56.33
83037;BME280;73029;43.592;1.458;2024-03-02T12:37:32;98023.97;;;14.77;56.09
83037;BME280;73029;43.592;1.458;2024-03-02T12:39:58;98024.75;;;14.79;56.17
83037;BME280;73029;43.592;1.458;2024-03-02T12:42:24;98014.84;;;14.81;56.03
83037;BME280;73029;43.592;1.458;2024-03-02T12:44:53;97999.53;;;14.85;55.97
83037;BME280;73029;43.592;1.458;2024-03-02T12:47:21;97988.00;;;14.84;55.97
83037;BME280;73029;43.592;1.458;2024-03-02T12:49:46;97997.59;;;14.87;55.76
83037;BME280;73029;43.592;1.458;2024-03-02T12:52:13;98001.97;;;15.00;56.40
83037;BME280;73029;43.592;1.458;2024-03-02T12:54:38;97989.19;;;15.05;55.80
83037;BME280;73029;43.592;1.458;2024-03-02T12:57:04;97991.09;;;15.16;56.15
83037;BME280;73029;43.592;1.458;2024-03-02T12:59:29;97983.75;;;15.20;55.57
83037;BME280;73029;43.592;1.458;2024-03-02T13:01:56;97979.16;;;15.34;55.73
83037;BME280;73029;43.592;1.458;2024-03-02T13:04:28;97964.97;;;15.47;55.29